Danville, IL

7:42 PM CDT on September 01, 2015 (GMT -0500)
N Jackson | | Change Station
CLOSE
Current Station
Personal Weather Station
Location: Danville, IL
Elevation: 672 ft
Nearby Weather Stations

Elev 672 ft 40.17 °N, 87.63 °W | Updated 30 seconds ago

Clear
Clear
81.9 °F
Feels Like 86 °F
N
0.0
Wind Variable Wind from South
Gusts 0.0 mph

Today
High -- | Low -- °F
--% Chance of Precip.
Yesterday
High -- | Low -- °F
Precip. -- in
6:17 AM 7:22 PM
Waning Gibbous, 85% visible
Pressure 30.04 in
Visibility 7.0 miles
Clouds Clear
Heat Index 86 °F
Dew Point 70 °F
Humidity 67%
Rainfall 0.12 in
Snow Depth Not available.
UV 0 out of 12
Pollen 10.40 out of 12
Air Quality Not available.
Flu Activity Not available.
METAR KDNV 020035Z AUTO 17003KT 7SM RA CLR 24/22 A3004 RMK AO2 T02400218
Pressure 30.04 in
Visibility 7.0 miles
Clouds Clear
Heat Index 86 °F
Dew Point 70 °F
Humidity 67%
Rainfall 0.12 in
Snow Depth Not available.
UV 0 out of 12
Pollen 10.40 out of 12
Air Quality Not available.
Flu Activity Not available.
METAR KDNV 020035Z AUTO 17003KT 7SM RA CLR 24/22 A3004 RMK AO2 T02400218

10-Day Weather Forecast

×

Almanac

Astronomy

Sep. 01, 2015 Rise Set
Actual Time
Civil Twilight
Nautical Twilight
Astronomical Twilight
Moon
Length of Visible Light
Length of Day
Tomorrow will be .
, % of the Moon is Illuminated

Today's Extremes

State Highs State Lows

Community

WunderPhotos

Upload Photos

1,851,658 photos uploaded!

WunderBlogs® & News

Nearby

Air Quality

  Air Quality AQ Index Pollutant
Not available.

Snow Depth

Station Depth Elevation

Earthquake Activity

City Distance Mag. Time & Date
Minimum magnitude displayed is 2.5.

Coastal Water Temperatures

Place Temperature

Stations

Nearby Weather Stations

Station Location Temp. Windchill Dew Point Humidity Wind Precip. Elev Updated Type